sensor_id;sensor_type;location;lat;lon;timestamp;temperature;humidity
10692;DHT22;5396;50.950;6.988;2023-02-01T00:01:59;7.20;99.90
10692;DHT22;5396;50.950;6.988;2023-02-01T00:04:25;7.10;99.90
10692;DHT22;5396;50.950;6.988;2023-02-01T00:06:52;7.10;99.90
10692;DHT22;5396;50.950;6.988;2023-02-01T00:09:19;7.00;99.90
10692;DHT22;5396;50.950;6.988;2023-02-01T00:11:44;7.00;99.90
10692;DHT22;5396;50.950;6.988;2023-02-01T00:14:13;7.00;99.90
10692;DHT22;5396;50.950;6.988;2023-02-01T00:16:39;7.00;99.90
10692;DHT22;5396;50.950;6.988;2023-02-01T00:19:12;7.00;99.90
10692;DHT22;5396;50.950;6.988;2023-02-01T00:21:38;7.00;99.90
10692;DHT22;5396;50.950;6.988;2023-02-01T00:24:04;6.90;99.90
10692;DHT22;5396;50.950;6.988;2023-02-01T00:26:41;6.90;99.90
10692;DHT22;5396;50.950;6.988;2023-02-01T00:29:11;6.90;99.90
10692;DHT22;5396;50.950;6.988;2023-02-01T00:31:37;6.90;99.90
10692;DHT22;5396;50.950;6.988;2023-02-01T00:34:03;7.00;99.90
10692;DHT22;5396;50.950;6.988;2023-02-01T00:36:29;7.00;99.90
10692;DHT22;5396;50.950;6.988;2023-02-01T00:38:55;7.00;99.90
10692;DHT22;5396;50.950;6.988;2023-02-01T00:41:21;6.90;99.90
10692;DHT22;5396;50.950;6.988;2023-02-01T00:43:48;7.00;99.90
10692;DHT22;5396;50.950;6.988;2023-02-01T00:46:15;7.00;99.90
10692;DHT22;5396;50.950;6.988;2023-02-01T00:48:41;6.90;99.90
10692;DHT22;5396;50.950;6.988;2023-02-01T00:51:09;6.90;99.90
10692;DHT22;5396;50.950;6.988;2023-02-01T00:53:36;6.90;99.90
10692;DHT22;5396;50.950;6.988;2023-02-01T00:56:02;6.90;99.90
10692;DHT22;5396;50.950;6.988;2023-02-01T00:58:28;6.90;99.90
10692;DHT22;5396;50.950;6.988;2023-02-01T01:01:10;6.90;99.90
10692;DHT22;5396;50.950;6.988;2023-02-01T01:03:40;6.90;99.90
10692;DHT22;5396;50.950;6.988;2023-02-01T01:06:11;6.90;99.90
10692;DHT22;5396;50.950;6.988;2023-02-01T01:08:37;6.80;99.90
10692;DHT22;5396;50.950;6.988;2023-02-01T01:11:12;6.80;99.90
10692;DHT22;5396;50.950;6.988;2023-02-01T01:13:38;6.80;99.90
10692;DHT22;5396;50.950;6.988;2023-02-01T01:16:05;6.80;99.90
10692;DHT22;5396;50.950;6.988;2023-02-01T01:18:32;6.80;99.90
10692;DHT22;5396;50.950;6.988;2023-02-01T01:20:59;6.80;99.90
10692;DHT22;5396;50.950;6.988;2023-02-01T01:23:24;6.80;99.90
10692;DHT22;5396;50.950;6.988;2023-02-01T01:25:50;6.80;99.90
10692;DHT22;5396;50.950;6.988;2023-02-01T01:28:16;6.80;99.90
10692;DHT22;5396;50.950;6.988;2023-02-01T01:30:41;6.80;99.90
10692;DHT22;5396;50.950;6.988;2023-02-01T01:33:07;6.80;99.90
10692;DHT22;5396;50.950;6.988;2023-02-01T01:35:33;6.80;99.90
10692;DHT22;5396;50.950;6.988;2023-02-01T01:37:59;6.80;99.90
10692;DHT22;5396;50.950;6.988;2023-02-01T01:40:27;6.70;99.90
10692;DHT22;5396;50.950;6.988;2023-02-01T01:42:53;6.70;99.90
10692;DHT22;5396;50.950;6.988;2023-02-01T01:45:32;6.70;99.90
10692;DHT22;5396;50.950;6.988;2023-02-01T01:48:01;6.70;99.90
10692;DHT22;5396;50.950;6.988;2023-02-01T01:50:33;6.60;99.90
10692;DHT22;5396;50.950;6.988;2023-02-01T01:53:02;6.60;99.90
10692;DHT22;5396;50.950;6.988;2023-02-01T01:55:33;6.60;99.90
10692;DHT22;5396;50.950;6.988;2023-02-01T01:58:05;6.50;99.90
10692;DHT22;5396;50.950;6.988;2023-02-01T02:00:32;6.60;99.90
10692;DHT22;5396;50.950;6.988;2023-02-01T02:03:02;6.50;99.90
10692;DHT22;5396;50.950;6.988;2023-02-01T02:05:29;6.50;99.90
10692;DHT22;5396;50.950;6.988;2023-02-01T02:07:58;6.50;99.90
10692;DHT22;5396;50.950;6.988;2023-02-01T02:10:24;6.60;99.90
10692;DHT22;5396;50.950;6.988;2023-02-01T02:13:10;6.60;99.90
10692;DHT22;5396;50.950;6.988;2023-02-01T02:15:43;6.60;99.90
10692;DHT22;5396;50.950;6.988;2023-02-01T02:18:44;6.60;99.90
10692;DHT22;5396;50.950;6.988;2023-02-01T02:21:40;6.50;99.90
10692;DHT22;5396;50.950;6.988;2023-02-01T02:33:03;6.60;99.90
10692;DHT22;5396;50.950;6.988;2023-02-01T02:35:52;6.60;99.90
10692;DHT22;5396;50.950;6.988;2023-02-01T02:44:19;6.60;99.90
10692;DHT22;5396;50.950;6.988;2023-02-01T02:47:13;6.60;99.90
10692;DHT22;5396;50.950;6.988;2023-02-01T02:50:27;6.60;99.90
10692;DHT22;5396;50.950;6.988;2023-02-01T02:53:23;6.70;99.90
10692;DHT22;5396;50.950;6.988;2023-02-01T02:56:09;6.70;99.90
10692;DHT22;5396;50.950;6.988;2023-02-01T02:58:54;6.60;99.90
10692;DHT22;5396;50.950;6.988;2023-02-01T03:01:40;6.60;99.90
10692;DHT22;5396;50.950;6.988;2023-02-01T03:04:24;6.60;99.90
10692;DHT22;5396;50.950;6.988;2023-02-01T03:06:52;6.60;99.90
10692;DHT22;5396;50.950;6.988;2023-02-01T03:09:33;6.60;99.90
10692;DHT22;5396;50.950;6.988;2023-02-01T03:12:07;6.60;99.90
10692;DHT22;5396;50.950;6.988;2023-02-01T03:14:57;6.60;99.90
10692;DHT22;5396;50.950;6.988;2023-02-01T03:17:29;6.60;99.90
10692;DHT22;5396;50.950;6.988;2023-02-01T03:19:59;6.60;99.90
10692;DHT22;5396;50.950;6.988;2023-02-01T03:22:28;6.70;99.90
10692;DHT22;5396;50.950;6.988;2023-02-01T03:25:05;6.60;99.90
10692;DHT22;5396;50.950;6.988;2023-02-01T03:27:47;6.70;99.90
10692;DHT22;5396;50.950;6.988;2023-02-01T03:30:22;6.70;99.90
10692;DHT22;5396;50.950;6.988;2023-02-01T03:32:50;6.70;99.90
10692;DHT22;5396;50.950;6.988;2023-02-01T03:41:15;6.80;99.90
10692;DHT22;5396;50.950;6.988;2023-02-01T03:44:00;6.80;99.90
10692;DHT22;5396;50.950;6.988;2023-02-01T03:46:37;6.80;99.90
10692;DHT22;5396;50.950;6.988;2023-02-01T03:49:10;6.80;99.90
10692;DHT22;5396;50.950;6.988;2023-02-01T03:51:40;6.80;99.90
10692;DHT22;5396;50.950;6.988;2023-02-01T03:54:09;6.70;99.90
10692;DHT22;5396;50.950;6.988;2023-02-01T03:56:38;6.70;99.90
10692;DHT22;5396;50.950;6.988;2023-02-01T03:59:05;6.70;99.90
10692;DHT22;5396;50.950;6.988;2023-02-01T04:01:31;6.70;99.90
10692;DHT22;5396;50.950;6.988;2023-02-01T04:03:57;6.70;99.90
10692;DHT22;5396;50.950;6.988;2023-02-01T04:06:23;6.70;99.90
10692;DHT22;5396;50.950;6.988;2023-02-01T04:08:49;6.70;99.90
10692;DHT22;5396;50.950;6.988;2023-02-01T04:11:15;6.70;99.90
10692;DHT22;5396;50.950;6.988;2023-02-01T04:13:41;6.70;99.90
10692;DHT22;5396;50.950;6.988;2023-02-01T04:16:07;6.70;99.90
10692;DHT22;5396;50.950;6.988;2023-02-01T04:18:32;6.70;99.90
10692;DHT22;5396;50.950;6.988;2023-02-01T04:20:59;6.70;99.90
10692;DHT22;5396;50.950;6.988;2023-02-01T04:23:26;6.70;99.90
10692;DHT22;5396;50.950;6.988;2023-02-01T04:25:51;6.70;99.90
10692;DHT22;5396;50.950;6.988;2023-02-01T04:28:17;6.70;99.90
10692;DHT22;5396;50.950;6.988;2023-02-01T04:30:45;6.70;99.90
10692;DHT22;5396;50.950;6.988;2023-02-01T04:33:10;6.70;99.90
10692;DHT22;5396;50.950;6.988;2023-02-01T04:35:39;6.70;99.90
10692;DHT22;5396;50.950;6.988;2023-02-01T04:38:05;6.70;99.90
10692;DHT22;5396;50.950;6.988;2023-02-01T04:40:30;6.70;99.90
10692;DHT22;5396;50.950;6.988;2023-02-01T04:42:56;6.70;99.90
10692;DHT22;5396;50.950;6.988;2023-02-01T04:45:21;6.60;99.90
10692;DHT22;5396;50.950;6.988;2023-02-01T04:47:47;6.60;99.90
10692;DHT22;5396;50.950;6.988;2023-02-01T04:50:14;6.60;99.90
10692;DHT22;5396;50.950;6.988;2023-02-01T04:52:39;6.60;99.90
10692;DHT22;5396;50.950;6.988;2023-02-01T04:55:06;6.50;99.90
10692;DHT22;5396;50.950;6.988;2023-02-01T04:57:31;6.50;99.90
10692;DHT22;5396;50.950;6.988;2023-02-01T04:59:57;6.40;99.90
10692;DHT22;5396;50.950;6.988;2023-02-01T05:02:22;6.40;99.90
10692;DHT22;5396;50.950;6.988;2023-02-01T05:04:48;6.40;99.90
10692;DHT22;5396;50.950;6.988;2023-02-01T05:07:14;6.40;99.90
10692;DHT22;5396;50.950;6.988;2023-02-01T05:09:39;6.40;99.90
10692;DHT22;5396;50.950;6.988;2023-02-01T05:12:05;6.40;99.90
10692;DHT22;5396;50.950;6.988;2023-02-01T05:14:49;6.40;99.90
10692;DHT22;5396;50.950;6.988;2023-02-01T05:17:15;6.30;99.90
10692;DHT22;5396;50.950;6.988;2023-02-01T05:19:41;6.30;99.90
10692;DHT22;5396;50.950;6.988;2023-02-01T05:22:06;6.30;99.90
10692;DHT22;5396;50.950;6.988;2023-02-01T05:24:32;6.30;99.90
10692;DHT22;5396;50.950;6.988;2023-02-01T05:26:57;6.30;99.90
10692;DHT22;5396;50.950;6.988;2023-02-01T05:29:23;6.30;99.90
10692;DHT22;5396;50.950;6.988;2023-02-01T05:31:48;6.30;99.90
10692;DHT22;5396;50.950;6.988;2023-02-01T05:34:15;6.20;99.90
10692;DHT22;5396;50.950;6.988;2023-02-01T05:36:41;6.20;99.90
10692;DHT22;5396;50.950;6.988;2023-02-01T05:39:06;6.20;99.90
10692;DHT22;5396;50.950;6.988;2023-02-01T05:41:32;6.20;99.90
10692;DHT22;5396;50.950;6.988;2023-02-01T05:43:58;6.10;99.90
10692;DHT22;5396;50.950;6.988;2023-02-01T05:46:23;6.10;99.90
10692;DHT22;5396;50.950;6.988;2023-02-01T05:48:49;6.10;99.90
10692;DHT22;5396;50.950;6.988;2023-02-01T05:51:14;6.10;99.90
10692;DHT22;5396;50.950;6.988;2023-02-01T05:53:40;6.10;99.90
10692;DHT22;5396;50.950;6.988;2023-02-01T05:56:06;6.10;99.90
10692;DHT22;5396;50.950;6.988;2023-02-01T05:58:32;6.00;99.90
10692;DHT22;5396;50.950;6.988;2023-02-01T06:01:01;6.00;99.90
10692;DHT22;5396;50.950;6.988;2023-02-01T06:03:27;6.00;99.90
10692;DHT22;5396;50.950;6.988;2023-02-01T06:05:53;6.00;99.90
10692;DHT22;5396;50.950;6.988;2023-02-01T06:08:18;6.00;99.90
10692;DHT22;5396;50.950;6.988;2023-02-01T06:10:44;6.00;99.90
10692;DHT22;5396;50.950;6.988;2023-02-01T06:13:10;6.00;99.90
10692;DHT22;5396;50.950;6.988;2023-02-01T06:15:35;6.00;99.90
10692;DHT22;5396;50.950;6.988;2023-02-01T06:18:03;5.90;99.90
10692;DHT22;5396;50.950;6.988;2023-02-01T06:20:29;5.90;99.90
10692;DHT22;5396;50.950;6.988;2023-02-01T06:22:54;5.90;99.90
10692;DHT22;5396;50.950;6.988;2023-02-01T06:25:20;6.00;99.90
10692;DHT22;5396;50.950;6.988;2023-02-01T06:27:46;6.00;99.90
10692;DHT22;5396;50.950;6.988;2023-02-01T06:30:13;5.90;99.90
10692;DHT22;5396;50.950;6.988;2023-02-01T06:32:42;6.00;99.90
10692;DHT22;5396;50.950;6.988;2023-02-01T06:35:08;6.00;99.90
10692;DHT22;5396;50.950;6.988;2023-02-01T06:37:37;5.90;99.90
10692;DHT22;5396;50.950;6.988;2023-02-01T06:40:03;6.00;99.90
10692;DHT22;5396;50.950;6.988;2023-02-01T06:42:29;6.00;99.90
10692;DHT22;5396;50.950;6.988;2023-02-01T06:44:55;6.00;99.90
10692;DHT22;5396;50.950;6.988;2023-02-01T06:47:20;6.00;99.90
10692;DHT22;5396;50.950;6.988;2023-02-01T06:49:46;6.00;99.90
10692;DHT22;5396;50.950;6.988;2023-02-01T06:52:11;6.00;99.90
10692;DHT22;5396;50.950;6.988;2023-02-01T06:54:37;6.00;99.90
10692;DHT22;5396;50.950;6.988;2023-02-01T06:57:03;6.00;99.90
10692;DHT22;5396;50.950;6.988;2023-02-01T06:59:28;6.10;99.90
10692;DHT22;5396;50.950;6.988;2023-02-01T07:01:54;6.10;99.90
10692;DHT22;5396;50.950;6.988;2023-02-01T07:04:21;6.10;99.90
10692;DHT22;5396;50.950;6.988;2023-02-01T07:06:46;6.10;99.90
10692;DHT22;5396;50.950;6.988;2023-02-01T07:09:12;6.00;99.90
10692;DHT22;5396;50.950;6.988;2023-02-01T07:11:39;6.10;99.90
10692;DHT22;5396;50.950;6.988;2023-02-01T07:14:09;6.10;99.90
10692;DHT22;5396;50.950;6.988;2023-02-01T07:16:34;6.10;99.90
10692;DHT22;5396;50.950;6.988;2023-02-01T07:19:00;6.10;99.90
10692;DHT22;5396;50.950;6.988;2023-02-01T07:21:26;6.10;99.90
10692;DHT22;5396;50.950;6.988;2023-02-01T07:23:54;6.10;99.90
10692;DHT22;5396;50.950;6.988;2023-02-01T07:26:20;6.10;99.90
10692;DHT22;5396;50.950;6.988;2023-02-01T07:28:46;6.10;99.90
10692;DHT22;5396;50.950;6.988;2023-02-01T07:31:15;6.10;99.90
10692;DHT22;5396;50.950;6.988;2023-02-01T07:33:41;6.10;99.90
10692;DHT22;5396;50.950;6.988;2023-02-01T07:36:11;6.10;99.90
10692;DHT22;5396;50.950;6.988;2023-02-01T07:38:37;6.10;99.90
10692;DHT22;5396;50.950;6.988;2023-02-01T07:41:04;6.10;99.90
10692;DHT22;5396;50.950;6.988;2023-02-01T07:43:31;6.10;99.90
10692;DHT22;5396;50.950;6.988;2023-02-01T07:45:57;6.10;99.90
10692;DHT22;5396;50.950;6.988;2023-02-01T07:48:23;6.10;99.90
10692;DHT22;5396;50.950;6.988;2023-02-01T07:51:01;6.10;99.90
10692;DHT22;5396;50.950;6.988;2023-02-01T07:53:28;6.10;99.90
10692;DHT22;5396;50.950;6.988;2023-02-01T07:55:54;6.10;99.90
10692;DHT22;5396;50.950;6.988;2023-02-01T07:58:23;6.00;99.90
10692;DHT22;5396;50.950;6.988;2023-02-01T08:00:49;6.00;99.90
10692;DHT22;5396;50.950;6.988;2023-02-01T08:03:33;6.10;99.90
10692;DHT22;5396;50.950;6.988;2023-02-01T08:05:59;6.00;99.90
10692;DHT22;5396;50.950;6.988;2023-02-01T08:08:25;6.00;99.90
10692;DHT22;5396;50.950;6.988;2023-02-01T08:10:50;6.00;99.90
10692;DHT22;5396;50.950;6.988;2023-02-01T08:13:16;6.00;99.90
10692;DHT22;5396;50.950;6.988;2023-02-01T08:15:42;6.00;99.90
10692;DHT22;5396;50.950;6.988;2023-02-01T08:18:08;6.00;99.90
10692;DHT22;5396;50.950;6.988;2023-02-01T08:20:35;6.00;99.90
10692;DHT22;5396;50.950;6.988;2023-02-01T08:23:01;6.00;99.90
10692;DHT22;5396;50.950;6.988;2023-02-01T08:25:28;6.00;99.90
10692;DHT22;5396;50.950;6.988;2023-02-01T08:27:54;6.00;99.90
10692;DHT22;5396;50.950;6.988;2023-02-01T08:30:21;6.00;99.90
10692;DHT22;5396;50.950;6.988;2023-02-01T08:32:47;6.00;99.90
10692;DHT22;5396;50.950;6.988;2023-02-01T08:35:13;6.00;99.90
10692;DHT22;5396;50.950;6.988;2023-02-01T08:37:39;6.00;99.90
10692;DHT22;5396;50.950;6.988;2023-02-01T08:40:05;6.00;99.90
10692;DHT22;5396;50.950;6.988;2023-02-01T08:42:31;6.00;99.90
10692;DHT22;5396;50.950;6.988;2023-02-01T08:45:16;6.10;99.90
10692;DHT22;5396;50.950;6.988;2023-02-01T08:47:42;6.10;99.90
10692;DHT22;5396;50.950;6.988;2023-02-01T08:50:08;6.10;99.90
10692;DHT22;5396;50.950;6.988;2023-02-01T08:52:34;6.20;99.90
10692;DHT22;5396;50.950;6.988;2023-02-01T08:55:00;6.20;99.90
10692;DHT22;5396;50.950;6.988;2023-02-01T08:57:25;6.20;99.90
10692;DHT22;5396;50.950;6.988;2023-02-01T08:59:51;6.30;99.90
10692;DHT22;5396;50.950;6.988;2023-02-01T09:02:17;6.30;99.90
10692;DHT22;5396;50.950;6.988;2023-02-01T09:04:43;6.40;99.90
10692;DHT22;5396;50.950;6.988;2023-02-01T09:07:09;6.50;99.90
10692;DHT22;5396;50.950;6.988;2023-02-01T09:09:35;6.50;99.90
10692;DHT22;5396;50.950;6.988;2023-02-01T09:12:02;6.50;99.90
10692;DHT22;5396;50.950;6.988;2023-02-01T09:14:28;6.60;99.90
10692;DHT22;5396;50.950;6.988;2023-02-01T09:16:53;6.60;99.90
10692;DHT22;5396;50.950;6.988;2023-02-01T09:19:19;6.70;99.90
10692;DHT22;5396;50.950;6.988;2023-02-01T09:21:44;6.70;99.90
10692;DHT22;5396;50.950;6.988;2023-02-01T09:24:11;6.80;99.90
10692;DHT22;5396;50.950;6.988;2023-02-01T09:26:37;6.80;99.90
10692;DHT22;5396;50.950;6.988;2023-02-01T09:29:03;6.80;99.90
10692;DHT22;5396;50.950;6.988;2023-02-01T09:31:32;6.70;99.90
10692;DHT22;5396;50.950;6.988;2023-02-01T09:33:57;6.70;99.90
10692;DHT22;5396;50.950;6.988;2023-02-01T09:36:23;6.70;99.90
10692;DHT22;5396;50.950;6.988;2023-02-01T09:38:49;6.70;99.90
10692;DHT22;5396;50.950;6.988;2023-02-01T09:44:28;6.80;99.90
10692;DHT22;5396;50.950;6.988;2023-02-01T09:46:58;6.80;99.90
10692;DHT22;5396;50.950;6.988;2023-02-01T09:49:31;6.80;99.90
10692;DHT22;5396;50.950;6.988;2023-02-01T09:51:59;6.90;99.90
10692;DHT22;5396;50.950;6.988;2023-02-01T09:54:28;7.00;99.90
10692;DHT22;5396;50.950;6.988;2023-02-01T09:57:18;7.00;99.90
10692;DHT22;5396;50.950;6.988;2023-02-01T09:59:51;7.00;99.90
10692;DHT22;5396;50.950;6.988;2023-02-01T10:02:27;6.90;99.90
10692;DHT22;5396;50.950;6.988;2023-02-01T10:04:56;6.90;99.90
10692;DHT22;5396;50.950;6.988;2023-02-01T10:08:05;6.90;99.90
10692;DHT22;5396;50.950;6.988;2023-02-01T10:10:41;6.90;99.90
10692;DHT22;5396;50.950;6.988;2023-02-01T10:21:36;7.00;99.90
10692;DHT22;5396;50.950;6.988;2023-02-01T10:24:29;7.00;99.90
10692;DHT22;5396;50.950;6.988;2023-02-01T10:27:20;7.00;99.90
10692;DHT22;5396;50.950;6.988;2023-02-01T10:29:59;7.00;99.90
10692;DHT22;5396;50.950;6.988;2023-02-01T10:32:32;7.00;99.90
10692;DHT22;5396;50.950;6.988;2023-02-01T10:35:00;7.10;99.90
10692;DHT22;5396;50.950;6.988;2023-02-01T10:37:30;7.10;99.90
10692;DHT22;5396;50.950;6.988;2023-02-01T10:42:59;7.20;99.90
10692;DHT22;5396;50.950;6.988;2023-02-01T10:45:28;7.20;99.90
10692;DHT22;5396;50.950;6.988;2023-02-01T10:47:56;7.30;99.90
10692;DHT22;5396;50.950;6.988;2023-02-01T10:53:55;7.40;99.90
10692;DHT22;5396;50.950;6.988;2023-02-01T10:56:24;7.50;99.90
10692;DHT22;5396;50.950;6.988;2023-02-01T10:58:51;7.70;99.90
10692;DHT22;5396;50.950;6.988;2023-02-01T11:01:23;7.80;99.90
10692;DHT22;5396;50.950;6.988;2023-02-01T11:06:29;7.90;99.90
10692;DHT22;5396;50.950;6.988;2023-02-01T11:11:33;8.00;99.90
10692;DHT22;5396;50.950;6.988;2023-02-01T11:14:02;8.00;99.90
10692;DHT22;5396;50.950;6.988;2023-02-01T11:16:38;7.90;99.90
10692;DHT22;5396;50.950;6.988;2023-02-01T11:19:04;7.80;99.90
10692;DHT22;5396;50.950;6.988;2023-02-01T11:21:31;7.70;99.90
10692;DHT22;5396;50.950;6.988;2023-02-01T11:24:01;7.70;99.90
10692;DHT22;5396;50.950;6.988;2023-02-01T11:26:28;7.70;99.90
10692;DHT22;5396;50.950;6.988;2023-02-01T11:29:16;7.70;99.90
10692;DHT22;5396;50.950;6.988;2023-02-01T11:31:44;7.70;99.90
10692;DHT22;5396;50.950;6.988;2023-02-01T11:34:20;7.70;99.90
10692;DHT22;5396;50.950;6.988;2023-02-01T11:36:47;7.80;99.90
10692;DHT22;5396;50.950;6.988;2023-02-01T11:39:25;7.80;99.90
10692;DHT22;5396;50.950;6.988;2023-02-01T11:44:45;7.80;99.90
10692;DHT22;5396;50.950;6.988;2023-02-01T11:47:40;7.80;99.90
10692;DHT22;5396;50.950;6.988;2023-02-01T11:50:17;7.90;99.90
10692;DHT22;5396;50.950;6.988;2023-02-01T11:53:17;7.80;99.90
10692;DHT22;5396;50.950;6.988;2023-02-01T11:56:01;7.80;99.90
10692;DHT22;5396;50.950;6.988;2023-02-01T12:06:55;7.80;99.90
10692;DHT22;5396;50.950;6.988;2023-02-01T12:09:33;7.90;99.90
10692;DHT22;5396;50.950;6.988;2023-02-01T12:18:02;7.80;99.90
10692;DHT22;5396;50.950;6.988;2023-02-01T12:34:44;7.90;99.90
10692;DHT22;5396;50.950;6.988;2023-02-01T12:39:54;7.90;99.90
10692;DHT22;5396;50.950;6.988;2023-02-01T12:42:46;8.00;99.90
10692;DHT22;5396;50.950;6.988;2023-02-01T12:45:26;8.10;99.90
10692;DHT22;5396;50.950;6.988;2023-02-01T12:50:48;8.10;99.90
10692;DHT22;5396;50.950;6.988;2023-02-01T12:55:55;8.00;99.90
10692;DHT22;5396;50.950;6.988;2023-02-01T12:58:26;8.00;99.90
10692;DHT22;5396;50.950;6.988;2023-02-01T13:01:02;8.00;99.90
10692;DHT22;5396;50.950;6.988;2023-02-01T13:03:59;7.90;99.90
10692;DHT22;5396;50.950;6.988;2023-02-01T13:07:02;8.00;99.90
10692;DHT22;5396;50.950;6.988;2023-02-01T13:09:51;8.00;99.90
10692;DHT22;5396;50.950;6.988;2023-02-01T13:12:24;7.90;99.90
10692;DHT22;5396;50.950;6.988;2023-02-01T13:15:20;7.90;99.90
10692;DHT22;5396;50.950;6.988;2023-02-01T13:17:44;8.00;99.90
10692;DHT22;5396;50.950;6.988;2023-02-01T13:20:31;8.00;99.90
10692;DHT22;5396;50.950;6.988;2023-02-01T13:23:07;7.90;99.90
10692;DHT22;5396;50.950;6.988;2023-02-01T13:25:46;7.90;99.90
10692;DHT22;5396;50.950;6.988;2023-02-01T13:34:17;7.90;99.90
10692;DHT22;5396;50.950;6.988;2023-02-01T13:42:27;7.70;99.90
10692;DHT22;5396;50.950;6.988;2023-02-01T13:45:03;7.70;99.90
10692;DHT22;5396;50.950;6.988;2023-02-01T13:47:38;7.70;99.90
10692;DHT22;5396;50.950;6.988;2023-02-01T13:50:31;7.70;99.90
10692;DHT22;5396;50.950;6.988;2023-02-01T13:53:05;7.70;99.90
10692;DHT22;5396;50.950;6.988;2023-02-01T13:55:41;7.60;99.90
10692;DHT22;5396;50.950;6.988;2023-02-01T13:58:18;7.60;99.90
10692;DHT22;5396;50.950;6.988;2023-02-01T14:00:46;7.70;99.90
10692;DHT22;5396;50.950;6.988;2023-02-01T14:03:20;7.80;99.90
10692;DHT22;5396;50.950;6.988;2023-02-01T14:08:43;7.90;99.90
10692;DHT22;5396;50.950;6.988;2023-02-01T14:11:46;8.00;99.90
10692;DHT22;5396;50.950;6.988;2023-02-01T14:19:30;8.00;99.90
10692;DHT22;5396;50.950;6.988;2023-02-01T14:22:01;8.10;99.90
10692;DHT22;5396;50.950;6.988;2023-02-01T14:24:56;8.10;99.90
10692;DHT22;5396;50.950;6.988;2023-02-01T14:27:28;8.10;99.90
10692;DHT22;5396;50.950;6.988;2023-02-01T14:30:06;8.20;99.90
10692;DHT22;5396;50.950;6.988;2023-02-01T14:32:40;8.20;99.90
10692;DHT22;5396;50.950;6.988;2023-02-01T14:35:17;8.20;99.90
10692;DHT22;5396;50.950;6.988;2023-02-01T14:37:45;8.20;99.90
10692;DHT22;5396;50.950;6.988;2023-02-01T14:42:48;8.20;99.90
10692;DHT22;5396;50.950;6.988;2023-02-01T14:47:54;8.30;99.90
10692;DHT22;5396;50.950;6.988;2023-02-01T15:00:57;8.40;99.90
10692;DHT22;5396;50.950;6.988;2023-02-01T15:03:45;8.40;99.90
10692;DHT22;5396;50.950;6.988;2023-02-01T15:06:29;8.40;99.90
10692;DHT22;5396;50.950;6.988;2023-02-01T15:08:59;8.40;99.90
10692;DHT22;5396;50.950;6.988;2023-02-01T15:11:26;8.40;99.90
10692;DHT22;5396;50.950;6.988;2023-02-01T15:13:53;8.40;99.90
10692;DHT22;5396;50.950;6.988;2023-02-01T15:16:22;8.40;99.90
10692;DHT22;5396;50.950;6.988;2023-02-01T15:18:49;8.40;99.90
10692;DHT22;5396;50.950;6.988;2023-02-01T15:21:20;8.40;99.90
10692;DHT22;5396;50.950;6.988;2023-02-01T15:23:46;8.50;99.90
10692;DHT22;5396;50.950;6.988;2023-02-01T15:26:27;8.40;99.90
10692;DHT22;5396;50.950;6.988;2023-02-01T15:28:55;8.40;99.90
10692;DHT22;5396;50.950;6.988;2023-02-01T15:31:39;8.50;99.90
10692;DHT22;5396;50.950;6.988;2023-02-01T15:34:06;8.40;99.90
10692;DHT22;5396;50.950;6.988;2023-02-01T15:36:32;8.40;99.90
10692;DHT22;5396;50.950;6.988;2023-02-01T15:39:16;8.40;99.90
10692;DHT22;5396;50.950;6.988;2023-02-01T15:41:51;8.40;99.90
10692;DHT22;5396;50.950;6.988;2023-02-01T15:44:37;8.40;99.90
10692;DHT22;5396;50.950;6.988;2023-02-01T15:47:20;8.40;99.90
10692;DHT22;5396;50.950;6.988;2023-02-01T15:49:52;8.40;99.90
10692;DHT22;5396;50.950;6.988;2023-02-01T15:54:58;8.30;99.90
10692;DHT22;5396;50.950;6.988;2023-02-01T15:57:30;8.40;99.90
10692;DHT22;5396;50.950;6.988;2023-02-01T15:59:59;8.40;99.90
10692;DHT22;5396;50.950;6.988;2023-02-01T16:02:37;8.40;99.90
10692;DHT22;5396;50.950;6.988;2023-02-01T16:05:05;8.40;99.90
10692;DHT22;5396;50.950;6.988;2023-02-01T16:07:33;8.40;99.90
10692;DHT22;5396;50.950;6.988;2023-02-01T16:10:00;8.40;99.90
10692;DHT22;5396;50.950;6.988;2023-02-01T16:12:46;8.40;99.90
10692;DHT22;5396;50.950;6.988;2023-02-01T16:15:12;8.40;99.90
10692;DHT22;5396;50.950;6.988;2023-02-01T16:17:38;8.40;99.90
10692;DHT22;5396;50.950;6.988;2023-02-01T16:20:04;8.40;99.90
10692;DHT22;5396;50.950;6.988;2023-02-01T16:22:30;8.40;99.90
10692;DHT22;5396;50.950;6.988;2023-02-01T16:24:55;8.40;99.90
10692;DHT22;5396;50.950;6.988;2023-02-01T16:27:21;8.30;99.90
10692;DHT22;5396;50.950;6.988;2023-02-01T16:29:48;8.30;99.90
10692;DHT22;5396;50.950;6.988;2023-02-01T16:32:19;8.20;99.90
10692;DHT22;5396;50.950;6.988;2023-02-01T16:34:46;7.90;99.90
10692;DHT22;5396;50.950;6.988;2023-02-01T16:37:20;7.70;99.90
10692;DHT22;5396;50.950;6.988;2023-02-01T16:39:46;7.60;99.90
10692;DHT22;5396;50.950;6.988;2023-02-01T16:42:12;7.60;99.90
10692;DHT22;5396;50.950;6.988;2023-02-01T16:44:39;7.60;99.90
10692;DHT22;5396;50.950;6.988;2023-02-01T16:47:15;7.60;99.90
10692;DHT22;5396;50.950;6.988;2023-02-01T16:49:42;7.60;99.90
10692;DHT22;5396;50.950;6.988;2023-02-01T16:52:21;7.60;99.90
10692;DHT22;5396;50.950;6.988;2023-02-01T16:54:52;7.60;99.90
10692;DHT22;5396;50.950;6.988;2023-02-01T16:57:20;7.60;99.90
10692;DHT22;5396;50.950;6.988;2023-02-01T16:59:51;7.60;99.90
10692;DHT22;5396;50.950;6.988;2023-02-01T17:02:18;7.60;99.90
10692;DHT22;5396;50.950;6.988;2023-02-01T17:04:47;7.60;99.90
10692;DHT22;5396;50.950;6.988;2023-02-01T17:07:15;7.50;99.90
10692;DHT22;5396;50.950;6.988;2023-02-01T17:09:42;7.40;99.90
10692;DHT22;5396;50.950;6.988;2023-02-01T17:12:22;7.30;99.90
10692;DHT22;5396;50.950;6.988;2023-02-01T17:14:49;7.20;99.90
10692;DHT22;5396;50.950;6.988;2023-02-01T17:17:15;7.20;99.90
10692;DHT22;5396;50.950;6.988;2023-02-01T17:19:43;7.30;99.90
10692;DHT22;5396;50.950;6.988;2023-02-01T17:22:09;7.30;99.90
10692;DHT22;5396;50.950;6.988;2023-02-01T17:24:35;7.30;99.90
10692;DHT22;5396;50.950;6.988;2023-02-01T17:27:01;7.30;99.90
10692;DHT22;5396;50.950;6.988;2023-02-01T17:29:28;7.30;99.90
10692;DHT22;5396;50.950;6.988;2023-02-01T17:31:54;7.40;99.90
10692;DHT22;5396;50.950;6.988;2023-02-01T17:34:21;7.40;99.90
10692;DHT22;5396;50.950;6.988;2023-02-01T17:36:47;7.40;99.90
10692;DHT22;5396;50.950;6.988;2023-02-01T17:39:14;7.20;99.90
10692;DHT22;5396;50.950;6.988;2023-02-01T17:42:00;7.00;99.90
10692;DHT22;5396;50.950;6.988;2023-02-01T17:44:26;6.80;99.90
10692;DHT22;5396;50.950;6.988;2023-02-01T17:46:52;6.80;99.90
10692;DHT22;5396;50.950;6.988;2023-02-01T17:49:17;6.80;99.90
10692;DHT22;5396;50.950;6.988;2023-02-01T17:51:43;6.80;99.90
10692;DHT22;5396;50.950;6.988;2023-02-01T17:54:11;6.90;99.90
10692;DHT22;5396;50.950;6.988;2023-02-01T17:56:38;6.90;99.90
10692;DHT22;5396;50.950;6.988;2023-02-01T17:59:03;6.90;99.90
10692;DHT22;5396;50.950;6.988;2023-02-01T18:01:29;6.90;99.90
10692;DHT22;5396;50.950;6.988;2023-02-01T18:03:55;6.90;99.90
10692;DHT22;5396;50.950;6.988;2023-02-01T18:06:23;7.00;99.90
10692;DHT22;5396;50.950;6.988;2023-02-01T18:08:50;7.00;99.90
10692;DHT22;5396;50.950;6.988;2023-02-01T18:11:18;7.10;99.90
10692;DHT22;5396;50.950;6.988;2023-02-01T18:13:45;7.10;99.90
10692;DHT22;5396;50.950;6.988;2023-02-01T18:16:23;7.20;99.90
10692;DHT22;5396;50.950;6.988;2023-02-01T18:18:49;7.20;99.90
10692;DHT22;5396;50.950;6.988;2023-02-01T18:21:18;7.20;99.90
10692;DHT22;5396;50.950;6.988;2023-02-01T18:23:44;7.20;99.90
10692;DHT22;5396;50.950;6.988;2023-02-01T18:26:15;7.30;99.90